Time;durP1;ratioP1;P1;durP2;ratioP2;P2;SDS_P1;SDS_P2;PMS_P1;PMS_P2;Temp;Humidity;BMP_temperature;BMP_pressure;BME280_temperature;BME280_humidity;BME280_pressure;Samples;Min_cycle;Max_cycle;Signal;HPM_P1;HPM_P2
2022/05/03 00:02:44;;;;;;;0.17;0.10;;;;;;;23.43;58.24;101067.38;5034543;28;20034;-73
2022/05/03 00:05:29;;;;;;;0.28;0.10;;;;;;;23.41;58.66;101074.97;5036260;28;20029;-72
2022/05/03 00:08:13;;;;;;;0.22;0.10;;;;;;;23.42;58.75;101079.41;5047453;28;20033;-72
2022/05/03 00:11:04;;;;;;;0.17;0.10;;;;;;;23.40;58.42;101087.00;5034692;28;20025;-72
2022/05/03 00:13:38;;;;;;;0.20;0.20;;;;;;;23.40;58.67;101084.25;5034011;28;20029;-72
2022/05/03 00:16:05;;;;;;;0.30;0.10;;;;;;;23.40;58.12;101084.25;5034308;28;20021;-72
2022/05/03 00:18:31;;;;;;;0.20;0.05;;;;;;;23.37;58.89;101082.75;5036717;28;20010;-72
2022/05/03 00:20:56;;;;;;;0.25;0.10;;;;;;;23.38;58.92;101089.09;5034163;28;20033;-72
2022/05/03 00:23:22;;;;;;;0.63;0.20;;;;;;;23.38;58.61;101098.16;5034225;28;20461;-72
2022/05/03 00:25:51;;;;;;;1.08;0.10;;;;;;;23.37;59.26;101096.47;5034330;28;20056;-72
2022/05/03 00:28:18;;;;;;;0.65;0.20;;;;;;;23.36;58.99;101096.69;5032728;28;20032;-72
2022/05/03 00:30:44;;;;;;;1.75;0.45;;;;;;;23.36;58.45;101099.41;5038182;28;20029;-71
2022/05/03 00:33:10;;;;;;;1.13;0.20;;;;;;;23.35;59.15;101105.94;5034130;28;20048;-71
2022/05/03 00:35:37;;;;;;;0.73;0.30;;;;;;;23.32;58.62;101109.06;5034003;28;20167;-72
2022/05/03 00:38:03;;;;;;;0.55;0.20;;;;;;;23.31;58.56;101110.13;5032627;28;20036;-71
2022/05/03 00:40:32;;;;;;;0.40;0.17;;;;;;;23.28;58.28;101116.00;5033718;28;20029;-71
2022/05/03 00:43:06;;;;;;;1.52;0.22;;;;;;;23.28;58.68;101118.75;5038620;28;20074;-71
2022/05/03 00:46:07;;;;;;;0.60;0.10;;;;;;;23.26;58.63;101112.63;5033637;28;20021;-72
2022/05/03 00:48:41;;;;;;;0.10;0.00;;;;;;;23.26;58.99;101118.09;5033890;28;20270;-70
2022/05/03 00:51:06;;;;;;;0.73;0.17;;;;;;;23.26;58.63;101118.09;5033676;28;20049;-70
2022/05/03 00:53:53;;;;;;;0.40;0.10;;;;;;;23.25;58.44;101128.22;5033490;28;20065;-71
2022/05/03 00:56:37;;;;;;;0.38;0.30;;;;;;;23.25;59.36;101124.63;5033398;28;20259;-71
2022/05/03 00:59:17;;;;;;;0.65;0.20;;;;;;;23.23;58.38;101126.72;5033532;28;20464;-73
2022/05/03 01:01:59;;;;;;;0.63;0.10;;;;;;;23.23;58.00;101130.31;5033199;28;20053;-70
2022/05/03 01:04:45;;;;;;;0.10;0.10;;;;;;;23.23;58.61;101140.44;5033262;28;20026;-71
2022/05/03 01:07:26;;;;;;;0.45;0.22;;;;;;;23.23;57.95;101143.19;5033215;28;20033;-71
2022/05/03 01:10:24;;;;;;;0.45;0.13;;;;;;;23.23;58.61;101146.78;5032271;28;20140;-71
2022/05/03 01:13:20;;;;;;;0.10;0.10;;;;;;;23.22;58.91;101141.47;5035862;28;20024;-71
2022/05/03 01:15:57;;;;;;;0.20;0.20;;;;;;;23.22;58.04;101149.72;5033227;28;20022;-71
2022/05/03 01:18:30;;;;;;;0.30;0.20;;;;;;;23.21;58.01;101165.31;5032953;28;20025;-71
2022/05/03 01:21:23;;;;;;;0.50;0.20;;;;;;;23.22;58.40;101160.69;5033092;28;20021;-71
2022/05/03 01:24:23;;;;;;;0.47;0.20;;;;;;;23.20;57.95;101158.16;5047284;28;20081;-71
2022/05/03 01:27:12;;;;;;;0.52;0.20;;;;;;;23.21;57.88;101169.97;5032907;28;20463;-72
2022/05/03 01:29:40;;;;;;;0.30;0.20;;;;;;;23.19;57.94;101174.78;5040897;28;20033;-69
2022/05/03 01:32:09;;;;;;;0.40;0.10;;;;;;;23.19;58.09;101167.41;5032856;28;20029;-71
2022/05/03 01:34:36;;;;;;;0.10;0.10;;;;;;;23.19;58.26;101172.06;5032807;28;20030;-71
2022/05/03 01:37:31;;;;;;;0.28;0.10;;;;;;;23.18;58.18;101175.81;5031772;28;20056;-71
2022/05/03 01:40:10;;;;;;;0.28;0.20;;;;;;;23.17;58.04;101171.38;5032557;28;20025;-71
2022/05/03 01:43:04;;;;;;;0.43;0.32;;;;;;;23.16;57.64;101172.41;5032934;28;20104;-71
2022/05/03 01:45:48;;;;;;;0.20;0.10;;;;;;;23.18;58.08;101175.81;5036773;28;20036;-71
2022/05/03 01:52:06;;;;;;;0.57;0.20;;;;;;;23.17;58.83;101174.13;5033169;28;20052;-71
2022/05/03 01:54:42;;;;;;;0.22;0.00;;;;;;;23.17;58.21;101174.13;5010166;28;20709;-71
2022/05/03 01:57:19;;;;;;;0.20;0.10;;;;;;;23.17;58.38;101188.69;5010352;28;20076;-71
2022/05/03 01:59:57;;;;;;;0.15;0.10;;;;;;;23.17;58.44;101190.56;5011916;28;20041;-71
2022/05/03 02:02:42;;;;;;;0.60;0.28;;;;;;;23.16;58.54;101183.38;5010202;28;20030;-71
2022/05/03 02:05:20;;;;;;;0.80;0.10;;;;;;;23.16;59.12;101195.22;5010259;28;20034;-72
2022/05/03 02:07:53;;;;;;;0.57;0.10;;;;;;;23.17;58.15;101191.41;5010162;28;20030;-70
2022/05/03 02:10:50;;;;;;;1.23;0.20;;;;;;;23.16;58.57;101195.22;5024871;28;20038;-70
2022/05/03 02:16:43;;;;;;;0.10;0.08;;;;;;;23.14;59.10;101204.69;5010028;28;20113;-71
2022/05/03 02:19:29;;;;;;;0.22;0.03;;;;;;;23.14;59.25;101208.28;5009979;28;20080;-70
2022/05/03 02:22:04;;;;;;;0.08;0.05;;;;;;;23.14;58.17;101202.78;5009923;28;20026;-71
2022/05/03 02:24:45;;;;;;;0.30;0.10;;;;;;;23.16;58.57;101210.81;5009931;28;20125;-70
2022/05/03 02:27:11;;;;;;;0.40;0.20;;;;;;;23.13;59.23;101217.53;5009963;28;20057;-71
2022/05/03 02:29:48;;;;;;;0.40;0.10;;;;;;;23.11;58.67;101217.75;5014954;28;20473;-70
2022/05/03 02:32:45;;;;;;;0.10;0.00;;;;;;;23.11;58.45;101215.00;5027519;28;20069;-71
2022/05/03 02:35:19;;;;;;;0.15;0.10;;;;;;;23.11;58.42;101220.47;5032018;28;20033;-70
2022/05/03 02:37:50;;;;;;;0.57;0.10;;;;;;;23.11;58.93;101220.47;5032073;28;20476;-71
2022/05/03 02:40:19;;;;;;;0.35;0.20;;;;;;;23.09;58.14;101217.09;5031883;28;20033;-70
2022/05/03 02:42:45;;;;;;;0.43;0.10;;;;;;;23.11;58.30;101222.38;5032139;28;20036;-71
2022/05/03 02:45:12;;;;;;;0.40;0.10;;;;;;;23.10;58.25;101229.75;5035989;28;20005;-69
2022/05/03 02:48:07;;;;;;;0.55;0.20;;;;;;;23.10;58.35;101228.91;5034841;28;20369;-71
2022/05/03 02:50:53;;;;;;;1.17;0.45;;;;;;;23.11;58.34;101234.19;5046992;28;20013;-70
2022/05/03 02:53:47;;;;;;;0.30;0.20;;;;;;;23.11;58.46;101242.41;5037859;28;20076;-72
2022/05/03 02:56:26;;;;;;;0.30;0.10;;;;;;;23.10;59.02;101248.09;5031854;28;20040;-71
2022/05/03 02:59:16;;;;;;;0.47;0.32;;;;;;;23.09;58.95;101236.28;5031900;28;20804;-70
2022/05/03 03:01:56;;;;;;;1.25;0.28;;;;;;;23.10;58.59;101245.38;5036001;28;20029;-70
2022/05/03 03:04:45;;;;;;;0.30;0.20;;;;;;;23.09;59.14;101252.75;5031668;28;20025;-72
2022/05/03 03:07:16;;;;;;;0.63;0.20;;;;;;;23.09;59.68;101260.97;5031526;28;20080;-72
2022/05/03 03:10:04;;;;;;;0.13;0.13;;;;;;;23.08;58.80;101251.03;5031710;28;20112;-70
2022/05/03 03:13:01;;;;;;;0.20;0.13;;;;;;;23.09;58.71;101244.50;5031734;28;20035;-72
2022/05/03 03:15:29;;;;;;;0.30;0.00;;;;;;;23.10;59.25;101256.34;5032860;28;20016;-70
2022/05/03 03:17:59;;;;;;;0.50;0.10;;;;;;;23.11;59.41;101252.53;5031749;28;20053;-71
2022/05/03 03:20:27;;;;;;;1.55;0.32;;;;;;;23.11;59.34;101252.53;5031739;28;20108;-72
2022/05/03 03:22:54;;;;;;;0.63;0.20;;;;;;;23.11;60.05;101258.03;5031815;28;20021;-71
2022/05/03 03:25:20;;;;;;;0.63;0.35;;;;;;;23.11;60.24;101258.88;5031663;28;20032;-69
2022/05/03 03:27:48;;;;;;;0.38;0.25;;;;;;;23.11;60.19;101258.03;5030352;28;20030;-70
2022/05/03 03:30:15;;;;;;;0.30;0.20;;;;;;;23.12;60.54;101273.44;5030321;28;20408;-72
2022/05/03 03:32:56;;;;;;;0.52;0.20;;;;;;;23.13;60.25;101263.31;5040115;28;20021;-71
2022/05/03 03:35:21;;;;;;;0.20;0.20;;;;;;;23.14;60.76;101273.25;5035005;28;20021;-70
2022/05/03 03:37:48;;;;;;;0.90;0.30;;;;;;;23.14;61.43;101270.50;5035150;28;20024;-70
2022/05/03 03:40:16;;;;;;;0.10;0.10;;;;;;;23.13;61.82;101271.53;5034888;28;20029;-70
2022/05/03 03:42:43;;;;;;;0.22;0.22;;;;;;;23.13;62.39;101272.41;5035026;28;20063;-72
2022/05/03 03:45:11;;;;;;;0.77;0.20;;;;;;;23.15;62.49;101284.03;5035044;28;20079;-70
2022/05/03 03:47:38;;;;;;;0.10;0.10;;;;;;;23.16;62.47;101288.47;5041068;28;20053;-70
2022/05/03 03:50:05;;;;;;;0.98;0.17;;;;;;;23.15;62.66;101269.44;5034846;28;20025;-70
2022/05/03 03:52:32;;;;;;;0.47;0.40;;;;;;;23.16;62.40;101282.97;5034726;28;20060;-71
2022/05/03 03:54:57;;;;;;;0.93;0.30;;;;;;;23.17;63.06;101283.81;5034765;28;20033;-71
2022/05/03 03:57:24;;;;;;;0.93;0.45;;;;;;;23.18;62.90;101304.72;5034647;28;20518;-70
2022/05/03 03:59:49;;;;;;;0.50;0.20;;;;;;;23.17;63.55;101303.88;5042098;28;20029;-70
2022/05/03 04:02:15;;;;;;;0.30;0.10;;;;;;;23.25;63.42;101302.94;5034607;28;20052;-71
2022/05/03 04:04:43;;;;;;;1.45;0.10;;;;;;;23.34;63.42;101308.09;5034655;28;20025;-71
2022/05/03 04:07:08;;;;;;;0.75;0.20;;;;;;;23.42;63.10;101307.13;5034660;28;20028;-70
2022/05/03 04:09:34;;;;;;;0.43;0.17;;;;;;;23.48;63.94;101309.09;5034646;28;20037;-71
2022/05/03 04:12:00;;;;;;;0.32;0.13;;;;;;;23.54;63.64;101307.50;5046001;28;20033;-71
2022/05/03 04:14:25;;;;;;;0.85;0.30;;;;;;;23.57;63.65;101316.22;5034472;28;20470;-71
2022/05/03 04:16:51;;;;;;;0.63;0.10;;;;;;;23.61;64.51;101294.69;5040776;28;20032;-68
2022/05/03 04:19:16;;;;;;;0.52;0.13;;;;;;;23.63;64.49;101307.19;5034533;28;20087;-71
2022/05/03 04:21:42;;;;;;;0.32;0.10;;;;;;;23.65;64.88;101310.56;5033040;28;20025;-70
2022/05/03 04:24:07;;;;;;;0.60;0.30;;;;;;;23.67;65.29;101313.97;5034555;28;20446;-71
2022/05/03 04:26:33;;;;;;;1.02;0.43;;;;;;;23.70;65.27;101319.09;5034660;28;20048;-71
2022/05/03 04:29:00;;;;;;;0.45;0.20;;;;;;;23.70;65.48;101319.09;5034213;28;20500;-70
2022/05/03 04:31:36;;;;;;;0.20;0.13;;;;;;;23.74;65.81;101318.69;5041909;28;20033;-72
2022/05/03 04:34:04;;;;;;;0.55;0.20;;;;;;;23.75;65.56;101314.91;5032861;28;20315;-70
2022/05/03 04:36:30;;;;;;;0.28;0.05;;;;;;;23.76;65.21;101317.47;5034042;28;20048;-71
2022/05/03 04:38:56;;;;;;;1.15;0.20;;;;;;;23.78;65.43;101320.00;5034061;28;20469;-70
2022/05/03 04:41:23;;;;;;;0.20;0.20;;;;;;;23.81;65.58;101322.34;5032754;28;20036;-71
2022/05/03 04:43:49;;;;;;;0.30;0.10;;;;;;;23.81;66.22;101322.34;5033894;28;20100;-70
2022/05/03 04:46:14;;;;;;;0.90;0.28;;;;;;;23.82;66.52;101324.03;5037361;28;20075;-71
2022/05/03 04:48:40;;;;;;;0.80;0.20;;;;;;;23.84;66.22;101335.69;5042647;28;20081;-68
2022/05/03 04:51:26;;;;;;;0.15;0.10;;;;;;;23.85;66.49;101331.88;5039876;28;20569;-71
2022/05/03 04:53:52;;;;;;;0.20;0.20;;;;;;;23.86;66.38;101311.66;5033455;28;20045;-71
2022/05/03 04:56:19;;;;;;;0.22;0.22;;;;;;;23.86;66.20;101323.47;5033916;28;20021;-70
2022/05/03 04:58:45;;;;;;;0.15;0.08;;;;;;;23.88;65.90;101329.63;5033609;28;20120;-70
2022/05/03 05:01:10;;;;;;;0.90;0.30;;;;;;;23.90;66.02;101334.91;5032779;28;20153;-71
2022/05/03 05:03:35;;;;;;;0.22;0.20;;;;;;;23.90;66.55;101341.25;5033519;28;20552;-71
2022/05/03 05:06:01;;;;;;;0.10;0.10;;;;;;;23.92;66.91;101346.56;5033376;28;20434;-71
2022/05/03 05:08:26;;;;;;;0.68;0.10;;;;;;;23.92;67.07;101354.78;5032108;28;20029;-72
2022/05/03 05:10:51;;;;;;;0.60;0.32;;;;;;;23.93;67.05;101345.50;5033883;28;20037;-71
2022/05/03 05:13:16;;;;;;;0.65;0.20;;;;;;;23.93;66.22;101351.00;5033424;28;20036;-71
2022/05/03 05:15:42;;;;;;;2.25;0.70;;;;;;;23.93;66.44;101340.84;5034475;28;20045;-71
2022/05/03 05:18:08;;;;;;;0.38;0.30;;;;;;;23.94;66.52;101352.69;5033400;28;20109;-71
2022/05/03 05:20:34;;;;;;;0.40;0.30;;;;;;;23.94;66.82;101341.72;5033203;28;20045;-71
2022/05/03 05:22:59;;;;;;;0.70;0.20;;;;;;;23.96;67.06;101358.84;5031953;28;20055;-70
2022/05/03 05:25:24;;;;;;;0.25;0.22;;;;;;;23.97;66.78;101352.28;5031879;28;20060;-70
2022/05/03 05:27:50;;;;;;;0.55;0.20;;;;;;;23.98;67.41;101362.22;5033109;28;20104;-72
2022/05/03 05:30:15;;;;;;;0.50;0.15;;;;;;;23.99;66.93;101361.19;5033047;28;20498;-70
2022/05/03 05:32:40;;;;;;;0.13;0.13;;;;;;;23.98;67.11;101356.75;5033227;28;20072;-71
2022/05/03 05:35:06;;;;;;;1.92;0.35;;;;;;;23.98;66.74;101370.47;5038529;28;20028;-70
2022/05/03 05:37:32;;;;;;;0.32;0.20;;;;;;;24.00;67.24;101357.38;5031775;28;20464;-71
2022/05/03 05:39:57;;;;;;;0.73;0.40;;;;;;;24.01;67.13;101364.56;5041720;28;20025;-72
2022/05/03 05:42:22;;;;;;;1.45;0.30;;;;;;;24.03;67.13;101373.50;5032721;28;20461;-70
2022/05/03 05:44:48;;;;;;;0.85;0.20;;;;;;;24.04;67.00;101383.44;5032972;28;20025;-71
2022/05/03 05:47:14;;;;;;;0.50;0.30;;;;;;;24.03;66.92;101379.00;5023053;28;20037;-70
2022/05/03 05:49:39;;;;;;;0.22;0.20;;;;;;;24.03;66.74;101383.63;5030482;28;20119;-70
2022/05/03 05:54:49;;;;;;;0.20;0.10;;;;;;;24.06;66.85;101392.31;5028867;28;20527;-70
2022/05/03 05:57:14;;;;;;;1.42;0.30;;;;;;;24.05;66.67;101387.88;5030596;28;20030;-71
2022/05/03 05:59:39;;;;;;;0.47;0.30;;;;;;;24.07;67.08;101391.28;5013893;28;20021;-68
2022/05/03 06:02:05;;;;;;;0.10;0.10;;;;;;;24.01;65.74;101384.66;5031315;28;20396;-69
2022/05/03 06:04:30;;;;;;;0.80;0.20;;;;;;;23.63;50.85;101389.53;5031101;28;20041;-75
2022/05/03 06:06:56;;;;;;;0.57;0.25;;;;;;;23.63;53.24;101395.00;5032356;28;20026;-71
2022/05/03 06:09:21;;;;;;;0.30;0.10;;;;;;;23.69;48.91;101399.75;5030097;28;20032;-70
2022/05/03 06:11:47;;;;;;;1.95;0.43;;;;;;;23.66;51.13;101383.66;5032221;28;20025;-72
2022/05/03 06:14:12;;;;;;;2.38;0.22;;;;;;;23.68;52.07;101402.66;5034704;28;20029;-71
2022/05/03 06:16:51;;;;;;;0.20;0.03;;;;;;;23.63;51.33;101399.66;5014626;28;20021;-73
2022/05/03 06:19:16;;;;;;;1.75;0.10;;;;;;;23.63;51.68;101405.16;5032212;28;20067;-74
2022/05/03 06:21:42;;;;;;;0.05;0.00;;;;;;;23.60;50.20;101409.13;5040473;28;20081;-71
2022/05/03 06:24:07;;;;;;;0.10;0.00;;;;;;;23.59;49.64;101412.06;5036433;28;20029;-72
2022/05/03 06:26:34;;;;;;;0.20;0.10;;;;;;;23.55;51.57;101403.34;5032014;28;20112;-74
2022/05/03 06:29:00;;;;;;;0.45;0.00;;;;;;;23.56;51.79;101415.16;5031992;28;20037;-72
2022/05/03 06:31:25;;;;;;;0.10;0.00;;;;;;;23.59;51.23;101417.56;5034053;28;20373;-72
2022/05/03 06:33:50;;;;;;;0.30;0.10;;;;;;;23.58;50.49;101416.72;5031189;28;20029;-71
2022/05/03 06:36:16;;;;;;;0.63;0.10;;;;;;;23.59;50.90;101414.81;5026078;28;20052;-74
2022/05/03 06:38:42;;;;;;;0.85;0.28;;;;;;;23.58;51.65;101419.44;5031156;28;20022;-73
2022/05/03 06:41:08;;;;;;;1.95;0.30;;;;;;;23.56;50.47;101420.66;5031618;28;20025;-75
2022/05/03 06:43:34;;;;;;;0.28;0.10;;;;;;;23.59;50.27;101426.66;5013195;28;20017;-70
2022/05/03 06:45:59;;;;;;;0.75;0.47;;;;;;;23.50;48.81;101433.22;5031038;28;20108;-76
2022/05/03 06:48:25;;;;;;;0.55;0.30;;;;;;;23.52;49.85;101431.19;5031270;28;20030;-76
2022/05/03 06:50:50;;;;;;;0.22;0.00;;;;;;;23.49;48.89;101434.28;5017197;28;20026;-73
2022/05/03 06:53:16;;;;;;;1.02;0.10;;;;;;;23.46;47.32;101426.44;5013760;28;20032;-74
2022/05/03 06:55:41;;;;;;;0.98;0.32;;;;;;;23.49;48.90;101445.25;5031527;28;20021;-74
2022/05/03 06:58:06;;;;;;;1.40;0.20;;;;;;;23.56;50.36;101437.13;5010710;28;20500;-74
2022/05/03 07:00:32;;;;;;;0.68;0.17;;;;;;;23.59;52.24;101442.25;5025736;28;20087;-74
2022/05/03 07:02:57;;;;;;;3.47;0.40;;;;;;;23.62;53.99;101441.88;5013414;28;20444;-72
2022/05/03 07:05:22;;;;;;;0.68;0.15;;;;;;;23.49;51.49;101442.50;5030988;28;20060;-74
2022/05/03 07:07:47;;;;;;;1.80;0.20;;;;;;;23.57;53.54;101449.84;5025831;28;20440;-76
2022/05/03 07:10:13;;;;;;;1.17;0.32;;;;;;;23.74;56.34;101450.47;5026481;28;20037;-74
2022/05/03 07:12:38;;;;;;;0.90;0.40;;;;;;;23.78;58.88;101460.03;5030319;28;20404;-73
2022/05/03 07:15:09;;;;;;;1.38;0.40;;;;;;;23.81;59.76;101462.38;5023427;28;20033;-75
2022/05/03 07:23:03;;;;;;;1.02;0.32;;;;;;;23.91;62.28;101473.91;5034267;28;20095;-76
2022/05/03 07:25:30;;;;;;;0.63;0.30;;;;;;;23.93;63.26;101466.34;5035735;28;20496;-75
2022/05/03 07:27:55;;;;;;;0.68;0.30;;;;;;;23.96;63.88;101465.94;5030972;28;20068;-75
2022/05/03 07:30:20;;;;;;;1.38;0.50;;;;;;;23.97;64.17;101478.63;5027938;28;20025;-75
2022/05/03 07:32:46;;;;;;;0.63;0.35;;;;;;;23.99;64.19;101482.88;5021642;28;20523;-78
2022/05/03 07:35:12;;;;;;;0.68;0.30;;;;;;;23.99;65.21;101498.50;5014432;28;20029;-79
2022/05/03 07:37:38;;;;;;;0.20;0.20;;;;;;;24.03;64.99;101488.84;5028407;28;20037;-78
2022/05/03 07:40:05;;;;;;;0.45;0.30;;;;;;;24.03;65.54;101488.84;5015990;28;20116;-71
2022/05/03 07:42:30;;;;;;;0.60;0.40;;;;;;;24.02;65.23;101495.41;5028136;28;20075;-76
2022/05/03 07:44:56;;;;;;;0.77;0.45;;;;;;;24.04;65.50;101496.06;5019093;28;20026;-75
2022/05/03 07:47:21;;;;;;;0.60;0.30;;;;;;;24.04;65.62;101490.56;5002438;28;20068;-73
2022/05/03 07:49:46;;;;;;;0.90;0.50;;;;;;;24.06;65.55;101504.09;5004655;28;20492;-77
2022/05/03 07:52:11;;;;;;;0.35;0.30;;;;;;;24.08;65.91;101508.34;5027974;28;20031;-77
2022/05/03 07:54:41;;;;;;;1.85;0.38;;;;;;;24.08;66.35;101505.59;5027734;28;20040;-77
2022/05/03 07:57:07;;;;;;;0.30;0.20;;;;;;;24.09;66.78;101509.19;5000350;28;20109;-76
2022/05/03 07:59:33;;;;;;;0.40;0.22;;;;;;;24.10;66.18;101505.41;5031144;28;20010;-69
2022/05/03 08:01:59;;;;;;;0.47;0.28;;;;;;;24.09;65.87;101515.53;5032491;28;20048;-70
2022/05/03 08:04:24;;;;;;;0.85;0.20;;;;;;;24.10;66.88;101521.88;5026053;28;20056;-75
2022/05/03 08:06:50;;;;;;;0.40;0.22;;;;;;;24.11;66.72;101513.44;5029590;28;20068;-75
2022/05/03 08:09:15;;;;;;;2.80;0.95;;;;;;;24.13;66.73;101518.75;5028283;28;20452;-76
2022/05/03 08:11:41;;;;;;;0.30;0.20;;;;;;;24.13;66.61;101516.84;5016492;28;20021;-74
2022/05/03 08:14:06;;;;;;;0.45;0.30;;;;;;;24.13;66.91;101521.50;5022779;28;20030;-75
2022/05/03 08:16:32;;;;;;;0.40;0.13;;;;;;;24.13;66.78;101538.81;5016690;28;20350;-75
2022/05/03 08:18:57;;;;;;;0.55;0.20;;;;;;;24.15;66.81;101530.38;5011575;28;20049;-78
2022/05/03 08:21:23;;;;;;;0.60;0.20;;;;;;;24.14;67.11;101523.19;5025860;28;20039;-75
2022/05/03 08:23:48;;;;;;;0.43;0.30;;;;;;;24.13;66.68;101527.84;5021517;28;20092;-77
2022/05/03 08:26:14;;;;;;;2.10;0.50;;;;;;;24.15;66.68;101531.22;5001938;28;20041;-72
2022/05/03 08:28:42;;;;;;;0.55;0.20;;;;;;;24.17;66.63;101534.63;5031802;28;20022;-70
2022/05/03 08:31:09;;;;;;;1.08;0.35;;;;;;;24.16;67.41;101537.56;5025083;28;20025;-75
2022/05/03 08:33:34;;;;;;;0.85;0.28;;;;;;;24.18;67.38;101535.50;5027832;28;20536;-77
2022/05/03 08:36:00;;;;;;;0.75;0.10;;;;;;;24.17;66.93;101529.13;5020930;28;20121;-77
2022/05/03 08:43:54;;;;;;;1.95;0.22;;;;;;;24.20;67.03;101534.28;5059776;28;20041;-77
2022/05/03 08:46:21;;;;;;;1.05;0.25;;;;;;;24.20;67.79;101545.25;5031732;28;20029;-77
2022/05/03 08:48:52;;;;;;;1.52;0.30;;;;;;;24.18;67.06;101546.47;5038296;28;20554;-75
2022/05/03 08:51:20;;;;;;;0.82;0.20;;;;;;;24.19;67.43;101540.81;5046164;28;20048;-75
2022/05/03 08:53:46;;;;;;;1.17;0.60;;;;;;;24.19;67.34;101540.81;5018249;28;20029;-76
2022/05/03 08:56:11;;;;;;;0.28;0.20;;;;;;;24.18;67.56;101541.84;5026012;28;20026;-74
2022/05/03 08:58:38;;;;;;;1.10;0.30;;;;;;;24.20;67.14;101544.41;5031602;28;20021;-77
2022/05/03 09:01:04;;;;;;;0.65;0.65;;;;;;;24.22;67.43;101542.31;5029984;28;20399;-77
2022/05/03 09:03:30;;;;;;;0.50;0.35;;;;;;;24.23;67.09;101564.09;5025229;28;20235;-76
2022/05/03 09:05:55;;;;;;;1.00;0.38;;;;;;;24.22;67.29;101554.16;5031763;28;20441;-77
2022/05/03 09:08:22;;;;;;;0.70;0.30;;;;;;;24.23;67.51;101572.34;5041970;28;20120;-76
2022/05/03 09:10:47;;;;;;;1.27;0.30;;;;;;;24.22;67.02;101567.03;5029895;28;20028;-74
2022/05/03 09:13:24;;;;;;;0.55;0.20;;;;;;;24.22;66.92;101570.66;5042726;28;20022;-73
2022/05/03 09:15:52;;;;;;;1.20;0.30;;;;;;;24.24;67.17;101562.22;5029111;28;20331;-76
2022/05/03 09:18:26;;;;;;;1.23;0.52;;;;;;;24.23;67.50;101566.84;5026517;28;20013;-73
2022/05/03 09:23:51;;;;;;;;;;;;;;;24.24;67.68;101563.06;5057086;28;20092;-76
2022/05/03 09:26:24;;;;;;;0.50;0.30;;;;;;;24.22;67.68;101559.66;5021445;28;19920;-73
2022/05/03 09:28:58;;;;;;;0.95;0.45;;;;;;;24.23;67.86;101550.38;5018158;28;20383;-73
2022/05/03 09:31:35;;;;;;;1.20;0.20;;;;;;;24.24;66.94;101554.81;5052413;28;20032;-76
2022/05/03 09:34:04;;;;;;;1.10;0.30;;;;;;;24.25;67.50;101559.25;5036174;28;20029;-71
2022/05/03 09:36:42;;;;;;;0.88;0.40;;;;;;;24.26;67.69;101560.13;5037094;28;20041;-73
2022/05/03 09:39:07;;;;;;;1.77;0.38;;;;;;;24.26;67.68;101569.22;5035883;28;20029;-72
2022/05/03 09:41:32;;;;;;;1.30;0.40;;;;;;;24.26;67.54;101562.88;5035391;28;20103;-74
2022/05/03 09:44:04;;;;;;;2.22;0.50;;;;;;;24.27;67.26;101570.91;5034331;28;20031;-74
2022/05/03 09:46:31;;;;;;;0.63;0.35;;;;;;;24.27;67.32;101562.66;5025479;28;20123;-74
2022/05/03 09:48:56;;;;;;;0.65;0.30;;;;;;;24.27;67.28;101562.66;5029325;28;20024;-75
2022/05/03 09:51:25;;;;;;;1.33;0.50;;;;;;;24.27;67.75;101568.16;5034251;28;20380;-74
2022/05/03 09:54:00;;;;;;;0.32;0.32;;;;;;;24.28;66.97;101578.09;5016875;28;20029;-75
2022/05/03 09:56:28;;;;;;;0.40;0.20;;;;;;;24.28;67.16;101569.88;5032544;28;20460;-75
2022/05/03 09:59:02;;;;;;;1.17;0.40;;;;;;;24.27;66.93;101573.66;5025709;28;20044;-75
2022/05/03 10:01:28;;;;;;;0.82;0.50;;;;;;;24.28;67.55;101580.84;5020830;28;20038;-74
2022/05/03 10:03:54;;;;;;;0.40;0.20;;;;;;;24.29;67.29;101579.84;5044265;28;20028;-76
2022/05/03 10:06:20;;;;;;;0.82;0.30;;;;;;;24.29;67.70;101584.47;5017242;28;20116;-76
2022/05/03 10:08:48;;;;;;;0.90;0.32;;;;;;;24.30;67.05;101578.78;5043084;28;20346;-74
2022/05/03 10:11:16;;;;;;;0.65;0.30;;;;;;;24.30;67.27;101573.28;5036066;28;20047;-77
2022/05/03 10:13:41;;;;;;;0.60;0.40;;;;;;;24.32;67.55;101575.00;5045354;28;20506;-73
2022/05/03 10:21:59;;;;;;;0.70;0.25;;;;;;;24.33;66.93;101582.19;4969256;28;20110;-70
2022/05/03 10:24:24;;;;;;;1.20;0.30;;;;;;;24.32;67.21;101572.25;4952896;28;20031;-77
2022/05/03 10:26:54;;;;;;;2.03;0.70;;;;;;;24.33;67.24;101576.69;4964388;28;20061;-76
2022/05/03 10:29:21;;;;;;;0.55;0.20;;;;;;;24.33;67.21;101580.31;4968913;28;20069;-77
2022/05/03 10:32:02;;;;;;;1.15;0.40;;;;;;;24.34;67.10;101583.91;4970546;28;20027;-76
2022/05/03 10:34:39;;;;;;;0.60;0.30;;;;;;;24.35;66.69;101580.09;4937699;28;20031;-76
2022/05/03 10:37:06;;;;;;;0.63;0.20;;;;;;;24.34;67.52;101583.91;4952049;28;20489;-77
2022/05/03 10:39:31;;;;;;;1.23;0.17;;;;;;;24.34;67.28;101578.41;4970233;28;20054;-77
2022/05/03 10:42:09;;;;;;;0.65;0.20;;;;;;;24.34;67.54;101594.88;4963308;28;20072;-77
2022/05/03 10:44:40;;;;;;;0.68;0.32;;;;;;;24.36;66.60;101590.06;4970875;28;20113;-76
2022/05/03 10:47:06;;;;;;;0.73;0.32;;;;;;;24.36;67.17;101581.84;4960547;28;20494;-77
2022/05/03 10:49:32;;;;;;;0.65;0.38;;;;;;;24.35;67.25;101580.09;4949176;29;20058;-77
2022/05/03 10:51:57;;;;;;;1.40;0.30;;;;;;;24.36;67.45;101587.34;4967141;28;20593;-76
2022/05/03 10:54:23;;;;;;;0.77;0.20;;;;;;;24.37;67.20;101594.53;4974482;28;20039;-75
2022/05/03 10:57:07;;;;;;;1.67;0.32;;;;;;;24.35;67.30;101580.09;5022864;28;20155;-77
2022/05/03 10:59:47;;;;;;;0.40;0.28;;;;;;;24.37;67.43;101580.78;5045895;28;20023;-77
2022/05/03 11:02:13;;;;;;;0.40;0.28;;;;;;;24.38;67.18;101588.00;5050257;28;20037;-75
2022/05/03 11:05:26;;;;;;;1.60;0.40;;;;;;;24.38;66.75;101594.34;5038774;28;20364;-76
2022/05/03 11:08:21;;;;;;;1.02;0.38;;;;;;;24.39;66.67;101584.19;5025536;28;20042;-76
2022/05/03 11:10:47;;;;;;;0.93;0.52;;;;;;;24.38;66.99;101590.72;5043591;28;20024;-76
2022/05/03 11:13:38;;;;;;;1.00;0.30;;;;;;;24.37;66.96;101583.53;5041372;28;20028;-74
2022/05/03 11:16:39;;;;;;;0.50;0.30;;;;;;;24.39;66.68;101581.44;5041493;28;20503;-77
2022/05/03 11:19:12;;;;;;;0.77;0.28;;;;;;;24.38;66.95;101596.22;4973819;28;20038;-76
2022/05/03 11:21:39;;;;;;;0.93;0.50;;;;;;;24.39;66.79;101597.94;4973841;28;20065;-76
2022/05/03 11:24:05;;;;;;;1.38;0.35;;;;;;;24.38;66.62;101590.72;4974326;28;20090;-74
2022/05/03 11:26:31;;;;;;;1.48;0.45;;;;;;;24.37;67.35;101584.38;4939884;28;20043;-76
2022/05/03 11:28:58;;;;;;;0.70;0.50;;;;;;;24.38;66.95;101604.47;4973639;28;20513;-75
2022/05/03 11:31:26;;;;;;;0.47;0.17;;;;;;;24.39;66.79;101592.44;4973487;28;20085;-74
2022/05/03 11:33:57;;;;;;;0.93;0.40;;;;;;;24.39;67.06;101597.94;4949320;28;20083;-74
2022/05/03 11:36:23;;;;;;;0.60;0.20;;;;;;;24.40;66.88;101610.63;4960297;28;20059;-77
2022/05/03 11:38:49;;;;;;;0.73;0.30;;;;;;;24.39;67.21;101598.78;4957347;28;20371;-69
2022/05/03 11:41:18;;;;;;;0.93;0.70;;;;;;;24.39;66.67;101589.69;4966576;28;20030;-69
2022/05/03 11:43:43;;;;;;;0.73;0.60;;;;;;;24.41;66.95;101595.84;4970330;28;20039;-76
2022/05/03 11:46:09;;;;;;;2.60;0.30;;;;;;;24.41;67.39;101598.59;4957072;28;20622;-76
2022/05/03 11:48:35;;;;;;;0.20;0.20;;;;;;;24.41;67.44;101595.84;4964229;28;20035;-76
2022/05/03 11:56:43;;;;;;;0.75;0.25;;;;;;;24.41;67.32;101595.84;5037099;28;20407;-76
2022/05/03 11:59:19;;;;;;;1.08;0.38;;;;;;;24.41;67.49;101585.69;5018622;28;20025;-74
2022/05/03 12:01:45;;;;;;;0.32;0.30;;;;;;;24.43;67.59;101582.75;5036446;28;20084;-71
2022/05/03 12:04:20;;;;;;;1.23;0.30;;;;;;;24.41;65.86;101593.09;5033150;28;20039;-75
2022/05/03 12:06:54;;;;;;;1.65;0.28;;;;;;;24.41;66.77;101593.09;5018433;28;20068;-75
2022/05/03 12:09:22;;;;;;;0.70;0.30;;;;;;;24.41;66.70;101595.84;5018771;28;20029;-75
2022/05/03 12:14:44;;;;;;;1.95;0.20;;;;;;;24.41;66.87;101601.34;5036167;28;20079;-71
2022/05/03 12:17:24;;;;;;;0.52;0.20;;;;;;;24.41;66.64;101590.34;5035800;28;20507;-75
2022/05/03 12:20:09;;;;;;;1.23;0.30;;;;;;;24.42;66.77;101581.06;5036201;28;20025;-75
2022/05/03 12:23:08;;;;;;;;;;;;;;;24.41;66.78;101582.09;5003871;28;20029;-76